createdAt,value
2023-05-11T00:00:39.000Z,100768.19
2023-05-11T00:03:06.277Z,100762.50
2023-05-11T00:05:32.855Z,100767.28
2023-05-11T00:07:59.348Z,100767.75
2023-05-11T00:10:26.050Z,100761.81
2023-05-11T00:12:52.515Z,100764.03
2023-05-11T00:15:19.113Z,100768.13
2023-05-11T00:17:45.668Z,100763.97
2023-05-11T00:20:12.177Z,100770.00
2023-05-11T00:22:39.207Z,100766.00
2023-05-11T00:25:06.456Z,100754.59
2023-05-11T00:27:32.967Z,100759.50
2023-05-11T00:29:59.422Z,100764.06
2023-05-11T00:32:25.870Z,100763.22
2023-05-11T00:34:52.416Z,100759.34
2023-05-11T00:37:18.858Z,100753.28
2023-05-11T00:39:45.405Z,100765.94
2023-05-11T00:42:11.866Z,100759.75
2023-05-11T00:44:38.340Z,100748.66
2023-05-11T00:47:04.947Z,100758.63
2023-05-11T00:49:31.561Z,100758.81
2023-05-11T00:51:58.287Z,100757.47
2023-05-11T00:54:25.272Z,100758.44
2023-05-11T00:56:51.871Z,100765.88
2023-05-11T00:59:18.756Z,100762.34
2023-05-11T01:01:45.739Z,100760.69
2023-05-11T01:04:12.841Z,100758.84
2023-05-11T01:07:27.552Z,100754.31
2023-05-11T01:10:05.902Z,100763.22
2023-05-11T01:12:43.458Z,100755.50
2023-05-11T01:15:21.471Z,100758.56
2023-05-11T01:18:22.080Z,100754.50
2023-05-11T01:20:53.233Z,100764.78
2023-05-11T01:23:39.906Z,100759.75
2023-05-11T01:26:06.302Z,100762.44
2023-05-11T01:28:44.727Z,100768.66
2023-05-11T01:31:12.604Z,100765.81
2023-05-11T01:33:49.812Z,100762.13
2023-05-11T01:36:19.484Z,100765.31
2023-05-11T01:38:49.071Z,100771.34
2023-05-11T01:41:19.067Z,100770.88
2023-05-11T01:43:53.511Z,100779.78
2023-05-11T01:46:24.379Z,100771.91
2023-05-11T01:48:54.557Z,100773.41
2023-05-11T01:51:21.177Z,100779.63
2023-05-11T01:53:48.595Z,100770.66
2023-05-11T01:56:17.764Z,100783.41
2023-05-11T01:58:45.423Z,100784.09
2023-05-11T02:01:14.283Z,100780.56
2023-05-11T02:03:43.058Z,100788.84
2023-05-11T02:06:11.553Z,100789.78
2023-05-11T02:08:39.387Z,100790.94
2023-05-11T02:11:07.272Z,100789.09
2023-05-11T02:13:36.648Z,100786.09
2023-05-11T02:16:35.220Z,100778.69
2023-05-11T02:19:03.194Z,100794.66
2023-05-11T02:21:32.400Z,100791.31
2023-05-11T02:24:01.796Z,100790.06
2023-05-11T02:26:28.335Z,100790.47
2023-05-11T02:28:55.541Z,100795.31
2023-05-11T02:31:29.723Z,100795.44
2023-05-11T02:34:06.300Z,100798.00
2023-05-11T02:36:35.701Z,100796.28
2023-05-11T02:39:06.986Z,100795.94
2023-05-11T02:41:37.793Z,100799.84
2023-05-11T02:44:07.431Z,100804.81
2023-05-11T02:46:37.029Z,100799.34
2023-05-11T02:49:08.053Z,100806.69
2023-05-11T02:51:39.329Z,100798.31
2023-05-11T02:54:10.925Z,100805.22
2023-05-11T03:00:06.825Z,100800.81
2023-05-11T03:02:33.480Z,100800.81
2023-05-11T03:05:00.001Z,100803.78
2023-05-11T03:07:26.661Z,100806.38
2023-05-11T03:09:53.398Z,100805.97
2023-05-11T03:12:21.235Z,100805.00
2023-05-11T03:14:48.341Z,100815.06
2023-05-11T03:17:15.835Z,100813.72
2023-05-11T03:19:43.343Z,100818.66
2023-05-11T03:22:10.653Z,100815.88
2023-05-11T03:24:38.500Z,100816.81
2023-05-11T03:27:07.827Z,100815.66
2023-05-11T03:29:38.452Z,100818.09
2023-05-11T03:32:05.501Z,100808.03
2023-05-11T03:34:32.465Z,100801.66
2023-05-11T03:37:00.733Z,100817.13
2023-05-11T03:39:31.236Z,100813.03
2023-05-11T03:41:59.310Z,100812.59
2023-05-11T03:44:26.675Z,100814.03
2023-05-11T03:46:55.261Z,100815.19
2023-05-11T03:49:22.400Z,100814.03
2023-05-11T03:51:49.373Z,100815.28
2023-05-11T03:54:16.112Z,100819.00
2023-05-11T03:56:42.640Z,100811.94
2023-05-11T03:59:14.464Z,100808.47
2023-05-11T04:01:42.613Z,100805.66
2023-05-11T04:04:09.211Z,100805.84
2023-05-11T04:06:35.807Z,100810.81
2023-05-11T04:09:02.229Z,100811.09
2023-05-11T04:11:30.421Z,100815.69
2023-05-11T04:13:56.990Z,100809.66
2023-05-11T04:16:23.482Z,100825.09
2023-05-11T04:18:50.110Z,100816.94
2023-05-11T04:21:16.654Z,100816.44
2023-05-11T04:23:43.165Z,100825.81
2023-05-11T04:26:10.105Z,100824.59
2023-05-11T04:28:36.571Z,100823.16
2023-05-11T04:31:03.175Z,100832.25
2023-05-11T04:33:29.813Z,100831.56
2023-05-11T04:35:56.391Z,100830.13
2023-05-11T04:38:22.959Z,100830.78
2023-05-11T04:40:50.668Z,100828.91
2023-05-11T04:43:18.523Z,100832.16
2023-05-11T04:45:51.693Z,100848.97
2023-05-11T04:48:20.519Z,100835.03
2023-05-11T04:50:47.761Z,100844.72
2023-05-11T04:53:14.400Z,100846.69
2023-05-11T04:55:41.030Z,100848.25
2023-05-11T04:58:07.530Z,100846.13
2023-05-11T05:00:34.119Z,100855.88
2023-05-11T05:03:00.606Z,100847.16
2023-05-11T05:05:27.223Z,100851.13
2023-05-11T05:07:53.686Z,100857.09
2023-05-11T05:10:20.586Z,100854.91
2023-05-11T05:12:47.404Z,100854.25
2023-05-11T05:15:14.077Z,100852.28
2023-05-11T05:17:40.701Z,100854.78
2023-05-11T05:20:07.938Z,100850.94
2023-05-11T05:22:34.922Z,100853.25
2023-05-11T05:25:01.490Z,100856.66
2023-05-11T05:27:28.106Z,100854.63
2023-05-11T05:29:54.631Z,100865.59
2023-05-11T05:32:21.107Z,100859.66
2023-05-11T05:34:47.638Z,100858.16
2023-05-11T05:37:14.200Z,100863.78
2023-05-11T05:39:40.927Z,100864.78
2023-05-11T05:42:07.559Z,100863.97
2023-05-11T05:44:34.066Z,100873.38
2023-05-11T05:47:00.583Z,100873.19
2023-05-11T05:49:27.093Z,100871.19
2023-05-11T05:51:53.617Z,100876.25
2023-05-11T05:54:20.211Z,100888.19
2023-05-11T05:56:47.688Z,100886.00
2023-05-11T05:59:14.513Z,100889.22
2023-05-11T06:01:45.573Z,100890.72
2023-05-11T06:04:16.044Z,100888.38
2023-05-11T06:06:42.702Z,100899.63
2023-05-11T06:09:11.332Z,100892.22
2023-05-11T06:11:38.276Z,100896.78
2023-05-11T06:14:05.808Z,100893.25
2023-05-11T06:16:32.574Z,100886.69
2023-05-11T06:18:59.292Z,100892.41
2023-05-11T06:21:25.769Z,100901.16
2023-05-11T06:23:52.517Z,100901.84
2023-05-11T06:26:19.206Z,100902.84
2023-05-11T06:28:45.721Z,100893.06
2023-05-11T06:31:12.721Z,100901.50
2023-05-11T06:33:39.256Z,100893.69
2023-05-11T06:36:06.740Z,100905.53
2023-05-11T06:38:33.208Z,100895.44
2023-05-11T06:40:59.796Z,100897.06
2023-05-11T06:43:26.739Z,100900.66
2023-05-11T06:45:53.268Z,100898.88
2023-05-11T06:48:20.465Z,100903.69
2023-05-11T06:50:46.996Z,100897.28
2023-05-11T06:53:13.954Z,100899.03
2023-05-11T06:55:40.700Z,100897.63
2023-05-11T06:58:07.246Z,100900.53
2023-05-11T07:00:34.004Z,100894.34
2023-05-11T07:03:00.653Z,100896.22
2023-05-11T07:05:27.935Z,100885.13
2023-05-11T07:07:54.440Z,100892.50
2023-05-11T07:10:21.206Z,100880.94
2023-05-11T07:12:47.911Z,100888.34
2023-05-11T07:15:14.393Z,100893.09
2023-05-11T07:17:41.014Z,100895.75
2023-05-11T07:20:08.345Z,100890.63
2023-05-11T07:22:34.816Z,100893.22
2023-05-11T07:25:01.597Z,100888.38
2023-05-11T07:27:28.188Z,100888.38
2023-05-11T07:29:54.697Z,100895.53
2023-05-11T07:32:21.207Z,100887.28
2023-05-11T07:34:48.544Z,100887.19
2023-05-11T07:37:15.271Z,100893.56
2023-05-11T07:39:41.814Z,100890.56
2023-05-11T07:42:08.360Z,100889.97
2023-05-11T07:44:35.018Z,100890.63
2023-05-11T07:47:01.839Z,100888.34
2023-05-11T07:49:39.976Z,100881.44
2023-05-11T07:52:10.384Z,100886.69
2023-05-11T07:54:36.965Z,100885.81
2023-05-11T07:57:04.098Z,100886.34
2023-05-11T07:59:31.193Z,100880.81
2023-05-11T08:01:57.845Z,100875.78
2023-05-11T08:04:24.505Z,100878.13
2023-05-11T08:06:51.202Z,100882.31
2023-05-11T08:09:17.934Z,100885.81
2023-05-11T08:11:44.480Z,100885.56
2023-05-11T08:14:10.997Z,100885.16
2023-05-11T08:16:37.990Z,100885.06
2023-05-11T08:19:04.725Z,100876.72
2023-05-11T08:21:32.858Z,100885.03
2023-05-11T08:23:59.405Z,100874.13
2023-05-11T08:26:25.876Z,100874.72
2023-05-11T08:28:52.831Z,100880.50
2023-05-11T08:31:19.410Z,100878.09
2023-05-11T08:33:46.063Z,100881.38
2023-05-11T08:36:15.717Z,100879.97
2023-05-11T08:38:42.292Z,100868.19
2023-05-11T08:41:11.894Z,100862.94
2023-05-11T08:43:39.832Z,100869.47
2023-05-11T08:46:08.830Z,100876.19
2023-05-11T08:48:35.924Z,100873.69
2023-05-11T08:51:05.596Z,100867.31
2023-05-11T08:53:32.701Z,100869.81
2023-05-11T08:56:01.100Z,100862.25
2023-05-11T08:58:29.031Z,100871.47
2023-05-11T09:00:57.351Z,100861.72
2023-05-11T09:03:24.059Z,100868.69
2023-05-11T09:05:50.925Z,100866.78
2023-05-11T09:08:19.230Z,100864.25
2023-05-11T09:10:46.255Z,100863.13
2023-05-11T09:13:13.196Z,100857.50
2023-05-11T09:15:39.784Z,100865.50
2023-05-11T09:18:06.933Z,100861.53
2023-05-11T09:20:34.786Z,100874.66
2023-05-11T09:23:01.915Z,100867.75
2023-05-11T09:25:34.851Z,100861.72
2023-05-11T09:28:01.561Z,100858.34
2023-05-11T09:30:28.443Z,100867.50
2023-05-11T09:33:02.697Z,100869.16
2023-05-11T09:35:34.463Z,100856.69
2023-05-11T09:38:04.809Z,100852.75
2023-05-11T09:40:37.317Z,100871.31
2023-05-11T09:43:16.816Z,100860.72
2023-05-11T09:45:45.469Z,100855.94
2023-05-11T09:48:21.402Z,100861.03
2023-05-11T09:50:50.145Z,100865.44
2023-05-11T09:53:17.377Z,100856.97
2023-05-11T09:55:55.648Z,100863.31
2023-05-11T09:58:22.264Z,100846.94
2023-05-11T10:00:53.742Z,100847.09
2023-05-11T10:03:20.576Z,100844.06
2023-05-11T10:06:01.279Z,100836.38
2023-05-11T10:08:32.369Z,100844.06
2023-05-11T10:10:59.208Z,100843.47
2023-05-11T10:13:27.313Z,100847.03
2023-05-11T10:15:57.620Z,100851.81
2023-05-11T10:18:25.720Z,100837.09
2023-05-11T10:20:53.577Z,100839.75
2023-05-11T10:23:21.103Z,100834.16
2023-05-11T10:25:48.416Z,100842.97
2023-05-11T10:28:15.474Z,100843.34
2023-05-11T10:30:43.089Z,100842.63
2023-05-11T10:33:10.628Z,100838.59
2023-05-11T10:35:38.509Z,100834.41
2023-05-11T10:38:08.643Z,100823.44
2023-05-11T10:40:41.994Z,100822.19
2023-05-11T10:43:29.879Z,100833.97
2023-05-11T10:46:17.867Z,100831.31
2023-05-11T10:49:10.158Z,100829.97
2023-05-11T10:52:18.080Z,100830.25
2023-05-11T10:55:06.775Z,100820.28
2023-05-11T10:57:52.073Z,100826.59
2023-05-11T11:00:31.289Z,100820.41
2023-05-11T11:02:59.024Z,100823.53
2023-05-11T11:05:38.081Z,100820.34
2023-05-11T11:08:07.316Z,100830.97
2023-05-11T11:10:35.750Z,100824.88
2023-05-11T11:13:04.640Z,100834.31
2023-05-11T11:16:06.441Z,100831.03
2023-05-11T11:18:35.699Z,100825.91
2023-05-11T11:21:03.024Z,100827.19
2023-05-11T11:23:45.467Z,100829.75
2023-05-11T11:26:16.635Z,100825.81
2023-05-11T11:29:08.339Z,100823.06
2023-05-11T11:31:35.210Z,100823.94
2023-05-11T11:34:29.312Z,100822.97
2023-05-11T11:36:55.812Z,100826.94
2023-05-11T11:39:23.100Z,100826.66
2023-05-11T11:42:07.062Z,100822.97
2023-05-11T11:44:39.573Z,100837.03
2023-05-11T11:47:12.127Z,100836.44
2023-05-11T11:49:40.352Z,100829.03
2023-05-11T11:52:12.513Z,100829.53
2023-05-11T11:54:45.453Z,100829.47
2023-05-11T11:57:30.232Z,100831.69
2023-05-11T11:59:57.115Z,100835.34
2023-05-11T12:02:24.537Z,100833.72
2023-05-11T12:05:00.146Z,100831.06
2023-05-11T12:07:31.336Z,100821.47
2023-05-11T12:09:58.175Z,100833.94
2023-05-11T12:12:25.363Z,100834.44
2023-05-11T12:14:51.851Z,100825.22
2023-05-11T12:17:28.063Z,100837.56
2023-05-11T12:19:55.912Z,100844.06
2023-05-11T12:22:24.351Z,100834.16
2023-05-11T12:24:51.232Z,100838.59
2023-05-11T12:27:21.102Z,100841.03
2023-05-11T12:29:51.416Z,100839.00
2023-05-11T12:32:31.909Z,100851.25
2023-05-11T12:35:02.775Z,100843.47
2023-05-11T12:37:31.135Z,100840.16
2023-05-11T12:39:58.335Z,100846.31
2023-05-11T12:42:25.375Z,100846.78
2023-05-11T12:44:52.305Z,100848.34
2023-05-11T12:47:18.962Z,100846.03
2023-05-11T12:49:45.682Z,100845.28
2023-05-11T12:52:16.393Z,100842.06
2023-05-11T12:54:51.691Z,100845.72
2023-05-11T12:57:26.587Z,100838.47
2023-05-11T13:00:25.609Z,100846.44
2023-05-11T13:02:54.887Z,100838.84
2023-05-11T13:05:27.800Z,100840.44
2023-05-11T13:08:02.211Z,100839.66
2023-05-11T13:10:29.544Z,100830.97
2023-05-11T13:12:56.594Z,100828.25
2023-05-11T13:15:24.530Z,100828.88
2023-05-11T13:18:16.504Z,100831.94
2023-05-11T13:20:44.865Z,100829.72
2023-05-11T13:23:13.891Z,100838.06
2023-05-11T13:25:46.513Z,100828.88
2023-05-11T13:28:15.425Z,100829.59
2023-05-11T13:30:42.483Z,100837.44
2023-05-11T13:33:09.434Z,100828.13
2023-05-11T13:35:39.981Z,100827.09
2023-05-11T13:38:06.898Z,100836.97
2023-05-11T13:40:34.059Z,100834.41
2023-05-11T13:43:00.803Z,100828.16
2023-05-11T13:45:28.403Z,100833.94
2023-05-11T13:47:57.831Z,100830.47
2023-05-11T13:50:26.064Z,100835.13
2023-05-11T13:52:53.761Z,100833.66
2023-05-11T13:55:21.187Z,100835.66
2023-05-11T13:57:48.297Z,100831.00
2023-05-11T14:00:15.403Z,100841.38
2023-05-11T14:02:42.147Z,100832.03
2023-05-11T14:05:09.183Z,100830.00
2023-05-11T14:07:46.384Z,100838.91
2023-05-11T14:10:15.329Z,100831.94
2023-05-11T14:12:41.938Z,100831.59
2023-05-11T14:15:09.069Z,100837.16
2023-05-11T14:17:35.876Z,100832.41
2023-05-11T14:20:03.291Z,100834.59
2023-05-11T14:22:29.857Z,100832.72
2023-05-11T14:24:56.390Z,100821.84
2023-05-11T14:27:23.495Z,100824.69
2023-05-11T14:29:52.059Z,100828.84
2023-05-11T14:32:22.046Z,100827.41
2023-05-11T14:34:48.820Z,100822.63
2023-05-11T14:37:15.577Z,100833.78
2023-05-11T14:39:42.117Z,100816.13
2023-05-11T14:42:09.268Z,100821.81
2023-05-11T14:44:35.825Z,100823.81
2023-05-11T14:47:02.518Z,100825.72
2023-05-11T14:49:29.018Z,100828.31
2023-05-11T14:51:56.588Z,100830.47
2023-05-11T14:54:23.298Z,100832.44
2023-05-11T14:56:53.877Z,100822.84
2023-05-11T14:59:26.416Z,100823.38
2023-05-11T15:01:53.272Z,100825.56
2023-05-11T15:04:20.396Z,100820.94
2023-05-11T15:06:47.016Z,100819.84
2023-05-11T15:09:13.681Z,100820.91
2023-05-11T15:11:40.163Z,100824.50
2023-05-11T15:14:09.831Z,100835.81
2023-05-11T15:16:37.110Z,100828.69
2023-05-11T15:19:05.081Z,100836.28
2023-05-11T15:21:32.568Z,100836.56
2023-05-11T15:23:59.110Z,100847.47
2023-05-11T15:26:25.963Z,100838.47
2023-05-11T15:28:52.530Z,100838.41
2023-05-11T15:31:19.071Z,100846.16
2023-05-11T15:33:45.712Z,100842.22
2023-05-11T15:36:14.181Z,100850.16
2023-05-11T15:38:42.377Z,100845.28
2023-05-11T15:41:09.387Z,100849.88
2023-05-11T15:43:35.902Z,100853.75
2023-05-11T15:46:03.888Z,100853.50
2023-05-11T15:48:30.719Z,100857.28
2023-05-11T15:50:59.724Z,100858.94
2023-05-11T15:53:26.929Z,100856.03
2023-05-11T15:55:55.406Z,100858.72
2023-05-11T15:58:22.982Z,100859.38
2023-05-11T16:00:49.585Z,100860.50
2023-05-11T16:03:16.584Z,100861.34
2023-05-11T16:05:44.557Z,100862.41
2023-05-11T16:08:11.328Z,100866.16
2023-05-11T16:10:37.897Z,100865.13
2023-05-11T16:13:04.535Z,100862.19
2023-05-11T16:15:32.105Z,100866.41
2023-05-11T16:17:58.704Z,100866.94
2023-05-11T16:20:25.421Z,100871.13
2023-05-11T16:22:52.208Z,100870.84
2023-05-11T16:25:18.997Z,100873.59
2023-05-11T16:27:45.562Z,100873.59
2023-05-11T16:30:23.278Z,100879.91
2023-05-11T16:32:52.450Z,100879.94
2023-05-11T16:35:19.128Z,100874.50
2023-05-11T16:37:47.655Z,100881.63
2023-05-11T16:40:14.362Z,100879.31
2023-05-11T16:42:40.868Z,100880.81
2023-05-11T16:45:07.746Z,100886.88
2023-05-11T16:47:34.404Z,100880.00
2023-05-11T16:50:00.883Z,100887.31
2023-05-11T16:52:27.644Z,100892.94
2023-05-11T16:54:54.895Z,100894.81
2023-05-11T16:57:22.663Z,100888.59
2023-05-11T16:59:49.170Z,100897.16
2023-05-11T17:02:15.638Z,100902.97
2023-05-11T17:04:42.197Z,100896.28
2023-05-11T17:07:10.907Z,100892.75
2023-05-11T17:09:37.473Z,100898.59
2023-05-11T17:12:10.600Z,100898.59
2023-05-11T17:14:37.314Z,100900.06
2023-05-11T17:17:04.849Z,100900.06
2023-05-11T17:19:31.457Z,100897.75
2023-05-11T17:21:58.659Z,100907.59
2023-05-11T17:24:25.565Z,100906.13
2023-05-11T17:26:52.174Z,100909.47
2023-05-11T17:29:18.741Z,100905.50
2023-05-11T17:31:48.721Z,100910.09
2023-05-11T17:34:15.948Z,100904.06
2023-05-11T17:36:53.309Z,100906.53
2023-05-11T17:39:19.915Z,100913.84
2023-05-11T17:41:47.391Z,100920.31
2023-05-11T17:44:14.120Z,100921.78
2023-05-11T17:46:40.670Z,100919.69
2023-05-11T17:49:08.003Z,100920.72
2023-05-11T17:51:34.505Z,100915.91
2023-05-11T17:54:01.414Z,100932.84
2023-05-11T17:56:27.937Z,100926.38
2023-05-11T17:58:54.670Z,100936.44
2023-05-11T18:01:22.588Z,100940.59
2023-05-11T18:03:49.568Z,100944.94
2023-05-11T18:06:16.456Z,100942.69
2023-05-11T18:08:42.980Z,100937.78
2023-05-11T18:11:10.888Z,100939.84
2023-05-11T18:13:37.435Z,100950.75
2023-05-11T18:16:04.453Z,100953.66
2023-05-11T18:18:31.930Z,100952.03
2023-05-11T18:20:59.368Z,100955.31
2023-05-11T18:23:25.815Z,100950.97
2023-05-11T18:25:52.267Z,100956.56
2023-05-11T18:28:18.778Z,100959.63
2023-05-11T18:30:45.229Z,100961.00
2023-05-11T18:33:11.761Z,100975.13
2023-05-11T18:35:40.241Z,100964.63
2023-05-11T18:38:07.110Z,100965.75
2023-05-11T18:40:34.486Z,100970.56
2023-05-11T18:43:01.572Z,100973.88
2023-05-11T18:45:32.920Z,100981.53
2023-05-11T18:47:59.432Z,100984.72
2023-05-11T18:50:27.091Z,100987.19
2023-05-11T18:52:53.700Z,100992.41
2023-05-11T18:55:20.268Z,100992.63
2023-05-11T18:57:46.892Z,100993.91
2023-05-11T19:00:13.730Z,100987.41
2023-05-11T19:02:40.308Z,100994.22
2023-05-11T19:05:07.417Z,101000.66
2023-05-11T19:07:33.936Z,100996.22
2023-05-11T19:10:00.404Z,101008.69
2023-05-11T19:12:27.288Z,101011.84
2023-05-11T19:14:56.123Z,101010.00
2023-05-11T19:17:23.534Z,101022.09
2023-05-11T19:19:50.189Z,101017.84
2023-05-11T19:22:17.309Z,101023.44
2023-05-11T19:24:43.814Z,101022.28
2023-05-11T19:27:10.408Z,101027.50
2023-05-11T19:29:36.992Z,101038.28
2023-05-11T19:32:03.693Z,101037.25
2023-05-11T19:34:30.296Z,101033.53
2023-05-11T19:36:56.889Z,101038.06
2023-05-11T19:39:24.366Z,101040.13
2023-05-11T19:41:50.962Z,101046.56
2023-05-11T19:44:17.830Z,101035.53
2023-05-11T19:46:46.881Z,101050.31
2023-05-11T19:49:15.001Z,101045.47
2023-05-11T19:51:42.343Z,101048.34
2023-05-11T19:54:09.631Z,101054.31
2023-05-11T19:56:36.156Z,101050.25
2023-05-11T19:59:02.863Z,101049.94
2023-05-11T20:01:29.413Z,101053.50
2023-05-11T20:03:56.645Z,101064.72
2023-05-11T20:06:23.328Z,101063.34
2023-05-11T20:08:51.553Z,101061.00
2023-05-11T20:11:18.249Z,101065.75
2023-05-11T20:13:45.030Z,101060.56
2023-05-11T20:16:11.576Z,101063.63
2023-05-11T20:18:38.153Z,101058.88
2023-05-11T20:21:04.651Z,101069.53
2023-05-11T20:23:31.125Z,101068.13
2023-05-11T20:25:57.694Z,101066.19
2023-05-11T20:28:27.923Z,101064.31
2023-05-11T20:30:56.142Z,101067.94
2023-05-11T20:35:53.574Z,101072.81
2023-05-11T20:38:20.543Z,101072.03
2023-05-11T20:40:47.270Z,101074.00
2023-05-11T20:43:14.963Z,101076.38
2023-05-11T20:45:42.302Z,101065.91
2023-05-11T20:48:09.165Z,101083.38
2023-05-11T20:50:35.759Z,101076.09
2023-05-11T20:53:02.476Z,101077.22
2023-05-11T20:55:29.137Z,101076.09
2023-05-11T20:57:55.699Z,101074.81
2023-05-11T21:00:22.816Z,101072.50
2023-05-11T21:02:49.795Z,101076.88
2023-05-11T21:05:16.512Z,101073.41
2023-05-11T21:07:43.033Z,101076.00
2023-05-11T21:10:12.417Z,101082.00
2023-05-11T21:12:38.968Z,101078.16
2023-05-11T21:15:07.061Z,101084.34
2023-05-11T21:17:33.741Z,101091.22
2023-05-11T21:20:00.501Z,101076.84
2023-05-11T21:22:27.160Z,101082.94
2023-05-11T21:24:53.839Z,101083.69
2023-05-11T21:27:20.383Z,101076.66
2023-05-11T21:29:48.133Z,101078.06
2023-05-11T21:32:14.941Z,101086.19
2023-05-11T21:34:42.439Z,101091.69
2023-05-11T21:37:09.084Z,101087.59
2023-05-11T21:39:35.688Z,101091.81
2023-05-11T21:42:03.502Z,101087.50
2023-05-11T21:44:30.024Z,101093.56
2023-05-11T21:46:56.642Z,101092.53
2023-05-11T21:49:23.301Z,101101.72
2023-05-11T21:51:50.227Z,101096.03
2023-05-11T21:54:16.799Z,101110.34
2023-05-11T21:56:43.605Z,101103.22
2023-05-11T21:59:10.169Z,101106.16
2023-05-11T22:01:36.718Z,101108.75
2023-05-11T22:04:03.555Z,101112.09
2023-05-11T22:06:30.853Z,101113.56
2023-05-11T22:08:57.326Z,101111.69
2023-05-11T22:11:24.258Z,101105.13
2023-05-11T22:13:51.019Z,101114.25
2023-05-11T22:16:17.664Z,101127.78
2023-05-11T22:18:44.421Z,101117.81
2023-05-11T22:21:11.017Z,101119.84
2023-05-11T22:23:37.630Z,101126.56
2023-05-11T22:26:04.550Z,101113.97
2023-05-11T22:28:31.018Z,101127.41
2023-05-11T22:31:00.628Z,101113.03
2023-05-11T22:33:27.114Z,101130.09
2023-05-11T22:35:53.637Z,101121.66
2023-05-11T22:38:20.194Z,101121.00
2023-05-11T22:40:46.694Z,101124.50
2023-05-11T22:43:13.226Z,101123.22
2023-05-11T22:45:39.915Z,101120.81
2023-05-11T22:48:07.278Z,101121.34
2023-05-11T22:50:33.867Z,101127.22
2023-05-11T22:53:00.649Z,101141.47
2023-05-11T22:55:27.189Z,101139.44
2023-05-11T22:57:53.625Z,101135.25
2023-05-11T23:00:20.577Z,101143.34
2023-05-11T23:02:47.537Z,101141.34
2023-05-11T23:05:14.288Z,101147.72
2023-05-11T23:07:40.807Z,101139.72
2023-05-11T23:10:07.645Z,101131.69
2023-05-11T23:12:34.230Z,101142.13
2023-05-11T23:15:01.021Z,101138.91
2023-05-11T23:17:27.696Z,101144.47
2023-05-11T23:19:54.236Z,101141.75
2023-05-11T23:22:20.772Z,101146.00
2023-05-11T23:24:47.312Z,101144.53
2023-05-11T23:27:14.121Z,101150.53
2023-05-11T23:29:40.723Z,101150.06
2023-05-11T23:32:07.301Z,101145.50
2023-05-11T23:34:33.823Z,101138.09
2023-05-11T23:37:00.425Z,101146.06
2023-05-11T23:39:26.922Z,101144.53
2023-05-11T23:41:53.410Z,101143.50
2023-05-11T23:44:20.272Z,101141.66
2023-05-11T23:46:46.884Z,101148.25
2023-05-11T23:49:13.537Z,101143.41
2023-05-11T23:51:40.088Z,101142.56
2023-05-11T23:54:07.099Z,101142.53
2023-05-11T23:56:33.770Z,101142.56
2023-05-11T23:59:00.287Z,101145.22
